Seward, AK

2:04 PM AKDT on September 23, 2014 (GMT -0800)
Soldotna | Change Station
CLOSE
Current Station
Airport
Location: Soldotna,
Elevation: 112 ft
Nearby Weather Stations

Elev 112 ft 60.48 °N, 151.03 °W | Updated 8 minutes ago

Clear
Clear
54 °F
Feels Like 54 °F
N
7
Wind Variable Wind from WNW

Today
High -- | Low -- °F
--% Chance of Precip.
Yesterday
High -- | Low -- °F
Precip. -- in
7:44 AM 7:53 PM
Waning Crescent, 0% visible
Pressure 29.89 in
Visibility 10.0 miles
Clouds Clear
Dew Point 37 °F
Humidity 54%
Rainfall 0.00 in
Snow Depth 2 in , 1 in , 7 in
UV 3 out of 12
Pollen Not available.
Air Quality Not available.
Flu Activity Not available.
METAR PASX 232156Z AUTO 29006KT 10SM CLR 12/03 A2989 RMK AO1

More Conditions Fewer Conditions

Pressure 29.89 in
Visibility 10.0 miles
Clouds Clear
Dew Point 37 °F
Humidity 54%
Rainfall 0.00 in
Snow Depth 2 in , 1 in , 7 in
UV 3 out of 12
Pollen Not available.
Air Quality Not available.
Flu Activity Not available.
METAR PASX 232156Z AUTO 29006KT 10SM CLR 12/03 A2989 RMK AO1

More Conditions Fewer Conditions

10-Day Weather Forecast

Almanac

Astronomy

Sep. 23, 2014 Rise Set
Actual Time 7:44 AM AKDT 7:53 PM AKDT
Civil Twilight 7:03 AM AKDT 8:35 PM AKDT
Nautical Twilight 6:12 AM AKDT 9:25 PM AKDT
Astronomical Twilight 5:18 AM AKDT 10:19 PM AKDT
Moon 7:18 AM AKDT 7:31 PM AKDT
Length of Visible Light 13h 32m
Length of Day
12h 08m
Tomorrow will be 5m 25s shorter.
Waning Crescent, 0% of the Moon is Illuminated
Today
Waning Crescent
Sep 24
New
Oct 1
First Quarter
Oct 8
Full
Oct 15
Last Quarter

Today's Extremes

State Highs State Lows

Community

WunderPhotos

Upload Photos

1,755,800 photos uploaded!

WunderBlogs® & News

Nearby

Snow Depth

Station Depth Elevation
Pargon Creek 2 in 300 ft
Munson Ridge 1 in 3100 ft
Rocky Point 7 in 500 ft
Upper Tsaina River 0 in 1750 ft
Moraine 0 in 2100 ft

Earthquake Activity

City Distance Mag. Time & Date
No recent earthquake activity has been reported nearby.
Minimum magnitude displayed is 2.5.

Coastal Water Temperatures

Place Temperature
No Stations Reporting

Nearby Weather Stations